Toledo, Brazil
Current Conditions -  °F | °C
As of 2:00 PM on Friday 19 Dec 2014 (Local Time) from SBSJ Reporting Station
Scattered Clouds Scattered Clouds  
Wind Chill: 91°   Ceiling: Unl
Heat Index: 93°   Visibility: 6mi
Dew Point: 64°   Wind: 5mph
Humidity: 41%   Direction: 360°N
Pressure: 29.85"   Gusts: NA
Location:  22.74°S, 46.37°W
Report Text: SBSJ 191600Z 36004KT 9999 SCT030 FEW035TCU 33/18 Q1011
Loading
Personal Weather Stations






























Interactive Weather Map New forecast layout! Learn more

10-Day Weather Forecast

Advertisements
Track Severe Weather on mobile